Hauptseite
METAR-TAF:

METAR-TAF

Flughäfen :

Flughafen Stuttgart

Stuttgart, Deutschland

Breite: 48-41N, Länge: 009-13E, Höhe: 396 m

Beobachtung

Neuester Wetterbericht von vor 10 Minuten, um 19:20 UTC
Wind 2 kt aus unterschiedlichen Richtungen
Temperatur 13°C
Luftfeuchtigkeit 72%
Luftdruck 1022 hPa
Sichtweite 10 km oder mehr
keine Wolken unter 1500 m und keine Kumulonimbus oder Gewitterwolken

METAR: EDDS 191920Z VRB02KT CAVOK 13/08 Q1022 NOSIG

Zeit: 21:30 (19:30 UTC)

Prognose

Neuester Wetterbericht von vor 2 Stunden und 30 Minuten, um 17:00 UTC
Gültige Prognose vom 19 um 18 UTC bis 20 um 18 UTC
Wind 3 kt aus unterschiedlichen Richtungen
Sichtweite 10 km oder mehr
keine Wolken unter 1500 m und keine Kumulonimbus oder Gewitterwolken
Übergehend zu
vom 20 um 09 UTC bis 20 um 11 UTC
Wind 8 kt aus Süd/Südwest

TAF: EDDS 191700Z 1918/2018 VRB03KT CAVOK BECMG 2009/2011 21008KT

Wetterbeobachtungen und Prognosen von mehr als 4000 Flughäfen (METAR und TAF Bericht).

Die verfügbaren Stationen werden durch gelbe und rote Markierungen auf der Karte dargestellt.

Führen Sie die Maus auf sie, um den Namen der Station zu sehen.

Darauf klicken, um die Beobachtung von Wetterbeobachtungen und Prognosen zu sehen.

Um die Karte zu ändern : klicken Sie auf den grünen Tasten mit einem schwarzen Kreuz Zum Vergrößern, auf den grünen Button mit einem Gedankenstrich zu verkleinern, oder auf die grünen Pfeile für benachbarte Karten.


METAR-TAF: